createdAt,value
2018-02-04T00:00:22.804Z,0
2018-02-04T00:01:24.675Z,0
2018-02-04T00:02:26.527Z,0
2018-02-04T00:03:40.643Z,0
2018-02-04T00:04:42.499Z,0
2018-02-04T00:05:44.366Z,0
2018-02-04T00:06:46.223Z,0
2018-02-04T00:07:48.032Z,0
2018-02-04T00:08:49.840Z,0
2018-02-04T00:09:51.691Z,0
2018-02-04T00:10:53.546Z,0
2018-02-04T00:11:55.418Z,0
2018-02-04T00:13:09.561Z,0
2018-02-04T00:14:11.439Z,0
2018-02-04T00:15:13.302Z,0
2018-02-04T00:16:15.175Z,0
2018-02-04T00:17:16.966Z,0
2018-02-04T00:18:18.772Z,0
2018-02-04T00:19:20.648Z,0
2018-02-04T00:20:22.518Z,0
2018-02-04T00:21:24.370Z,0
2018-02-04T00:22:38.510Z,0
2018-02-04T00:23:40.360Z,0
2018-02-04T00:24:42.228Z,0
2018-02-04T00:25:44.076Z,0
2018-02-04T00:26:45.869Z,0
2018-02-04T00:27:47.657Z,0
2018-02-04T00:28:49.526Z,0
2018-02-04T00:29:51.382Z,0
2018-02-04T00:30:53.251Z,0
2018-02-04T00:32:07.368Z,0
2018-02-04T00:33:09.222Z,0
2018-02-04T00:34:11.076Z,0
2018-02-04T00:35:12.944Z,0
2018-02-04T00:36:14.734Z,0
2018-02-04T00:37:16.540Z,0
2018-02-04T00:38:18.393Z,0
2018-02-04T00:39:20.243Z,0
2018-02-04T00:40:22.092Z,0
2018-02-04T00:41:36.234Z,0
2018-02-04T00:42:38.107Z,0
2018-02-04T00:43:39.975Z,0
2018-02-04T00:44:41.845Z,0
2018-02-04T00:45:43.630Z,0
2018-02-04T00:46:45.417Z,0
2018-02-04T00:47:47.276Z,0
2018-02-04T00:48:49.130Z,0
2018-02-04T00:49:51.001Z,0
2018-02-04T00:51:05.115Z,0
2018-02-04T00:52:06.966Z,0
2018-02-04T00:53:08.817Z,0
2018-02-04T00:54:10.672Z,0
2018-02-04T00:55:12.481Z,0
2018-02-04T00:56:14.268Z,0
2018-02-04T00:57:16.141Z,0
2018-02-04T00:58:18.016Z,0
2018-02-04T00:59:19.888Z,0
2018-02-04T01:00:34.027Z,0
2018-02-04T01:01:35.901Z,0
2018-02-04T01:02:37.767Z,0
2018-02-04T01:03:39.617Z,0
2018-02-04T01:04:41.407Z,0
2018-02-04T01:05:43.197Z,0
2018-02-04T01:06:45.069Z,0
2018-02-04T01:07:46.928Z,0
2018-02-04T01:08:48.789Z,0
2018-02-04T01:10:02.909Z,0
2018-02-04T01:11:04.780Z,0
2018-02-04T01:12:06.658Z,0
2018-02-04T01:13:08.500Z,0
2018-02-04T01:14:10.312Z,0
2018-02-04T01:15:12.115Z,0
2018-02-04T01:16:13.969Z,0
2018-02-04T01:17:15.845Z,0
2018-02-04T01:18:17.707Z,0
2018-02-04T01:19:31.824Z,0
2018-02-04T01:20:33.682Z,0
2018-02-04T01:21:35.547Z,0
2018-02-04T01:22:37.396Z,0
2018-02-04T01:23:39.185Z,0
2018-02-04T01:24:40.971Z,0
2018-02-04T01:25:42.821Z,0
2018-02-04T01:26:44.676Z,0
2018-02-04T01:27:46.521Z,0
2018-02-04T01:29:00.639Z,0
2018-02-04T01:30:02.488Z,0
2018-02-04T01:31:04.345Z,0
2018-02-04T01:32:06.216Z,0
2018-02-04T01:33:08.023Z,0
2018-02-04T01:34:09.841Z,0
2018-02-04T01:35:11.624Z,0
2018-02-04T01:36:13.499Z,0
2018-02-04T01:37:15.376Z,0
2018-02-04T01:38:29.488Z,0
2018-02-04T01:39:31.406Z,0
2018-02-04T01:40:33.217Z,0
2018-02-04T01:41:35.088Z,0
2018-02-04T01:42:36.880Z,0
2018-02-04T01:43:38.684Z,0
2018-02-04T01:44:40.558Z,0
2018-02-04T01:45:42.409Z,0
2018-02-04T01:46:44.281Z,0
2018-02-04T01:47:58.401Z,0
2018-02-04T01:49:00.288Z,0
2018-02-04T01:50:02.156Z,0
2018-02-04T01:51:04.012Z,0
2018-02-04T01:52:05.822Z,0
2018-02-04T01:53:07.606Z,0
2018-02-04T01:54:09.463Z,0
2018-02-04T01:55:11.336Z,0
2018-02-04T01:56:13.201Z,0
2018-02-04T01:57:27.375Z,0
2018-02-04T01:58:29.221Z,0
2018-02-04T01:59:31.073Z,0
2018-02-04T02:00:32.921Z,0
2018-02-04T02:01:34.714Z,0
2018-02-04T02:02:36.517Z,0
2018-02-04T02:03:38.370Z,0
2018-02-04T02:04:40.217Z,0
2018-02-04T02:05:42.072Z,0
2018-02-04T02:06:56.242Z,0
2018-02-04T02:07:58.094Z,0
2018-02-04T02:08:59.947Z,0
2018-02-04T02:10:01.816Z,0
2018-02-04T02:11:03.601Z,0
2018-02-04T02:12:05.406Z,0
2018-02-04T02:13:07.275Z,0
2018-02-04T02:14:09.124Z,0
2018-02-04T02:15:10.980Z,0
2018-02-04T02:16:25.114Z,0
2018-02-04T02:17:26.985Z,0
2018-02-04T02:18:28.855Z,0
2018-02-04T02:19:30.705Z,0
2018-02-04T02:20:32.492Z,0
2018-02-04T02:21:34.276Z,0
2018-02-04T02:22:36.129Z,0
2018-02-04T02:23:38.000Z,0
2018-02-04T02:24:39.878Z,0
2018-02-04T02:25:54.009Z,0
2018-02-04T02:26:55.865Z,0
2018-02-04T02:27:57.725Z,0
2018-02-04T02:28:59.580Z,0
2018-02-04T02:30:01.366Z,0
2018-02-04T02:31:03.174Z,0
2018-02-04T02:32:05.041Z,0
2018-02-04T02:33:06.897Z,0
2018-02-04T02:34:08.767Z,0
2018-02-04T02:35:22.882Z,0
2018-02-04T02:36:24.732Z,0
2018-02-04T02:37:26.602Z,0
2018-02-04T02:38:28.452Z,0
2018-02-04T02:39:30.253Z,0
2018-02-04T02:40:32.048Z,0
2018-02-04T02:41:33.920Z,0
2018-02-04T02:42:35.785Z,0
2018-02-04T02:43:37.634Z,0
2018-02-04T02:44:51.750Z,0
2018-02-04T02:45:53.603Z,0
2018-02-04T02:46:55.452Z,0
2018-02-04T02:47:57.323Z,0
2018-02-04T02:48:59.110Z,0
2018-02-04T02:50:00.918Z,0
2018-02-04T02:51:02.792Z,0
2018-02-04T02:52:04.640Z,0
2018-02-04T02:53:06.492Z,0
2018-02-04T02:54:20.630Z,0
2018-02-04T02:55:22.508Z,0
2018-02-04T02:56:24.350Z,0
2018-02-04T02:57:26.225Z,0
2018-02-04T02:58:27.998Z,0
2018-02-04T02:59:29.791Z,0
2018-02-04T03:00:31.662Z,0
2018-02-04T03:01:33.512Z,0
2018-02-04T03:02:35.363Z,0
2018-02-04T03:03:49.483Z,0
2018-02-04T03:04:51.356Z,0
2018-02-04T03:05:53.222Z,0
2018-02-04T03:06:55.078Z,0
2018-02-04T03:07:56.885Z,0
2018-02-04T03:08:58.691Z,0
2018-02-04T03:10:00.543Z,0
2018-02-04T03:11:02.439Z,0
2018-02-04T03:12:04.318Z,0
2018-02-04T03:13:18.450Z,0
2018-02-04T03:14:20.305Z,0
2018-02-04T03:15:22.160Z,0
2018-02-04T03:16:24.014Z,0
2018-02-04T03:17:25.825Z,0
2018-02-04T03:18:27.609Z,0
2018-02-04T03:19:29.483Z,0
2018-02-04T03:20:31.332Z,0
2018-02-04T03:21:33.201Z,0
2018-02-04T03:22:47.316Z,0
2018-02-04T03:23:49.175Z,0
2018-02-04T03:24:51.045Z,0
2018-02-04T03:25:52.894Z,0
2018-02-04T03:26:54.686Z,0
2018-02-04T03:27:56.466Z,0
2018-02-04T03:28:58.323Z,0
2018-02-04T03:30:00.191Z,0
2018-02-04T03:31:02.057Z,0
2018-02-04T03:32:16.176Z,0
2018-02-04T03:33:18.032Z,0
2018-02-04T03:34:19.904Z,0
2018-02-04T03:35:21.779Z,0
2018-02-04T03:36:23.568Z,0
2018-02-04T03:37:25.369Z,0
2018-02-04T03:38:27.225Z,0
2018-02-04T03:39:29.095Z,0
2018-02-04T03:40:30.943Z,0
2018-02-04T03:41:45.079Z,0
2018-02-04T03:42:46.935Z,0
2018-02-04T03:43:48.806Z,0
2018-02-04T03:44:50.681Z,0
2018-02-04T03:45:52.474Z,0
2018-02-04T03:46:54.272Z,0
2018-02-04T03:47:56.124Z,0
2018-02-04T03:48:57.981Z,0
2018-02-04T03:49:59.855Z,0
2018-02-04T03:51:13.967Z,0
2018-02-04T03:52:15.841Z,0
2018-02-04T03:53:17.706Z,0
2018-02-04T03:54:19.557Z,0
2018-02-04T03:55:21.352Z,0
2018-02-04T03:56:23.134Z,0
2018-02-04T03:57:24.988Z,0
2018-02-04T03:58:26.857Z,0
2018-02-04T03:59:28.715Z,0
2018-02-04T04:00:42.852Z,0
2018-02-04T04:01:44.711Z,0
2018-02-04T04:02:46.581Z,0
2018-02-04T04:03:48.411Z,0
2018-02-04T04:04:50.213Z,0
2018-02-04T04:05:52.005Z,0
2018-02-04T04:06:53.860Z,0
2018-02-04T04:07:55.731Z,0
2018-02-04T04:08:57.602Z,0
2018-02-04T04:10:11.717Z,0
2018-02-04T04:11:13.576Z,0
2018-02-04T04:12:15.448Z,0
2018-02-04T04:13:17.320Z,0
2018-02-04T04:14:19.128Z,0
2018-02-04T04:15:20.911Z,0
2018-02-04T04:16:22.761Z,0
2018-02-04T04:17:24.616Z,0
2018-02-04T04:18:26.467Z,0
2018-02-04T04:19:40.587Z,0
2018-02-04T04:20:42.454Z,0
2018-02-04T04:21:44.309Z,0
2018-02-04T04:22:46.197Z,0
2018-02-04T04:23:47.993Z,0
2018-02-04T04:24:49.792Z,0
2018-02-04T04:25:51.648Z,0
2018-02-04T04:26:53.520Z,0
2018-02-04T04:27:55.391Z,0
2018-02-04T04:29:09.526Z,0
2018-02-04T04:30:11.384Z,0
2018-02-04T04:31:13.256Z,0
2018-02-04T04:32:15.124Z,0
2018-02-04T04:33:16.915Z,0
2018-02-04T04:34:18.698Z,0
2018-02-04T04:35:20.549Z,0
2018-02-04T04:36:22.421Z,0
2018-02-04T04:37:24.289Z,0
2018-02-04T04:38:38.402Z,0
2018-02-04T04:39:40.278Z,0
2018-02-04T04:40:42.132Z,0
2018-02-04T04:41:44.000Z,0
2018-02-04T04:42:45.795Z,0
2018-02-04T04:43:47.578Z,0
2018-02-04T04:44:49.425Z,0
2018-02-04T04:45:51.278Z,0
2018-02-04T04:46:53.145Z,0
2018-02-04T04:48:07.264Z,0
2018-02-04T04:49:09.116Z,0
2018-02-04T04:50:10.969Z,0
2018-02-04T04:51:12.826Z,0
2018-02-04T04:52:14.634Z,0
2018-02-04T04:53:16.432Z,0
2018-02-04T04:54:18.290Z,0
2018-02-04T04:55:20.136Z,0
2018-02-04T04:56:21.985Z,0
2018-02-04T04:57:36.103Z,0
2018-02-04T04:58:37.976Z,0
2018-02-04T04:59:39.850Z,0
2018-02-04T05:00:41.723Z,0
2018-02-04T05:01:43.530Z,0
2018-02-04T05:02:45.336Z,0
2018-02-04T05:03:47.192Z,0
2018-02-04T05:04:49.061Z,0
2018-02-04T05:05:50.914Z,0
2018-02-04T05:07:05.101Z,0
2018-02-04T05:08:06.974Z,0
2018-02-04T05:09:08.850Z,0
2018-02-04T05:10:10.701Z,0
2018-02-04T05:11:12.509Z,0
2018-02-04T05:12:14.296Z,0
2018-02-04T05:13:16.167Z,0
2018-02-04T05:14:18.022Z,0
2018-02-04T05:15:19.893Z,0
2018-02-04T05:16:34.013Z,0
2018-02-04T05:17:35.880Z,0
2018-02-04T05:18:37.735Z,0
2018-02-04T05:19:39.604Z,0
2018-02-04T05:20:41.415Z,0
2018-02-04T05:21:43.222Z,0
2018-02-04T05:22:45.096Z,0
2018-02-04T05:23:46.969Z,0
2018-02-04T05:24:48.840Z,0
2018-02-04T05:26:03.022Z,0
2018-02-04T05:27:04.880Z,0
2018-02-04T05:28:06.748Z,0
2018-02-04T05:29:08.623Z,0
2018-02-04T05:30:10.433Z,0
2018-02-04T05:31:12.223Z,0
2018-02-04T05:32:14.091Z,0
2018-02-04T05:33:15.966Z,0
2018-02-04T05:34:17.833Z,0
2018-02-04T05:35:31.957Z,0
2018-02-04T05:36:33.830Z,0
2018-02-04T05:37:35.700Z,0
2018-02-04T05:38:37.555Z,0
2018-02-04T05:39:39.358Z,0
2018-02-04T05:40:41.147Z,0
2018-02-04T05:41:43.002Z,0
2018-02-04T05:42:44.851Z,0
2018-02-04T05:43:46.666Z,0
2018-02-04T05:45:00.786Z,0
2018-02-04T05:46:02.656Z,0
2018-02-04T05:47:04.529Z,0
2018-02-04T05:48:06.400Z,0
2018-02-04T05:49:08.206Z,0
2018-02-04T05:50:10.012Z,0
2018-02-04T05:51:11.861Z,0
2018-02-04T05:52:13.714Z,0
2018-02-04T05:53:15.572Z,0
2018-02-04T05:54:29.710Z,0
2018-02-04T05:55:31.581Z,0
2018-02-04T05:56:33.434Z,0
2018-02-04T05:57:35.287Z,0
2018-02-04T05:58:37.095Z,0
2018-02-04T05:59:38.882Z,0
2018-02-04T06:00:40.753Z,0
2018-02-04T06:01:42.608Z,0
2018-02-04T06:02:44.477Z,4
2018-02-04T06:03:58.590Z,0
2018-02-04T06:05:00.451Z,4
2018-02-04T06:06:02.324Z,4
2018-02-04T06:07:04.193Z,4
2018-02-04T06:08:05.984Z,4
2018-02-04T06:09:07.797Z,8
2018-02-04T06:10:09.657Z,8
2018-02-04T06:11:11.510Z,12
2018-02-04T06:12:13.381Z,8
2018-02-04T06:13:27.502Z,16
2018-02-04T06:14:29.356Z,16
2018-02-04T06:15:31.232Z,20
2018-02-04T06:16:33.109Z,20
2018-02-04T06:17:34.921Z,28
2018-02-04T06:18:36.723Z,28
2018-02-04T06:19:38.585Z,32
2018-02-04T06:20:40.428Z,36
2018-02-04T06:21:42.286Z,40
2018-02-04T06:22:56.426Z,44
2018-02-04T06:23:58.298Z,48
2018-02-04T06:25:00.169Z,48
2018-02-04T06:26:02.046Z,52
2018-02-04T06:27:03.855Z,60
2018-02-04T06:28:05.664Z,64
2018-02-04T06:29:07.536Z,68
2018-02-04T06:30:09.408Z,76
2018-02-04T06:31:11.262Z,80
2018-02-04T06:32:25.435Z,92
2018-02-04T06:33:27.304Z,108
2018-02-04T06:34:29.162Z,120
2018-02-04T06:35:31.038Z,140
2018-02-04T06:36:32.850Z,152
2018-02-04T06:37:34.643Z,164
2018-02-04T06:38:36.516Z,176
2018-02-04T06:39:38.373Z,180
2018-02-04T06:40:40.228Z,184
2018-02-04T06:41:54.418Z,184
2018-02-04T06:42:56.286Z,176
2018-02-04T06:43:58.140Z,180
2018-02-04T06:44:59.995Z,196
2018-02-04T06:46:01.792Z,204
2018-02-04T06:47:03.601Z,200
2018-02-04T06:48:05.459Z,208
2018-02-04T06:49:07.328Z,240
2018-02-04T06:50:09.186Z,276
2018-02-04T06:51:23.327Z,328
2018-02-04T06:52:25.206Z,380
2018-02-04T06:53:27.083Z,440
2018-02-04T06:54:28.958Z,492
2018-02-04T06:55:30.770Z,528
2018-02-04T06:56:32.579Z,556
2018-02-04T06:57:34.430Z,588
2018-02-04T06:58:36.289Z,616
2018-02-04T06:59:38.159Z,628
2018-02-04T07:00:52.327Z,640
2018-02-04T07:01:54.183Z,648
2018-02-04T07:02:56.038Z,660
2018-02-04T07:03:57.911Z,668
2018-02-04T07:04:59.725Z,680
2018-02-04T07:06:01.515Z,684
2018-02-04T07:07:03.392Z,708
2018-02-04T07:08:05.264Z,752
2018-02-04T07:09:07.121Z,816
2018-02-04T07:10:21.308Z,920
2018-02-04T07:11:23.166Z,1016
2018-02-04T07:12:25.042Z,1108
2018-02-04T07:13:26.899Z,1184
2018-02-04T07:14:28.695Z,1252
2018-02-04T07:15:30.501Z,1312
2018-02-04T07:16:32.359Z,1352
2018-02-04T07:17:34.232Z,1392
2018-02-04T07:18:36.107Z,1428
2018-02-04T07:19:50.277Z,1492
2018-02-04T07:20:52.130Z,1560
2018-02-04T07:21:53.986Z,1632
2018-02-04T07:22:55.861Z,1696
2018-02-04T07:23:57.672Z,1752
2018-02-04T07:24:59.460Z,1800
2018-02-04T07:26:01.316Z,1832
2018-02-04T07:27:03.176Z,1852
2018-02-04T07:28:05.051Z,1872
2018-02-04T07:29:19.191Z,1892
2018-02-04T07:30:21.046Z,1912
2018-02-04T07:31:22.910Z,1948
2018-02-04T07:32:24.761Z,1980
2018-02-04T07:33:26.579Z,2012
2018-02-04T07:34:28.406Z,2036
2018-02-04T07:35:30.232Z,2068
2018-02-04T07:36:32.092Z,2080
2018-02-04T07:37:33.983Z,2084
2018-02-04T07:38:48.120Z,2060
2018-02-04T07:39:49.997Z,2012
2018-02-04T07:40:51.872Z,1940
2018-02-04T07:41:53.725Z,1888
2018-02-04T07:42:55.515Z,1876
2018-02-04T07:43:57.302Z,1900
2018-02-04T07:44:59.166Z,1968
2018-02-04T07:46:01.037Z,2072
2018-02-04T07:47:02.917Z,2192
2018-02-04T07:48:17.111Z,2348
2018-02-04T07:49:18.987Z,2464
2018-02-04T07:50:20.869Z,2564
2018-02-04T07:51:22.720Z,2640
2018-02-04T07:52:24.548Z,2708
2018-02-04T07:53:26.323Z,2784
2018-02-04T07:54:28.198Z,2876
2018-02-04T07:55:30.072Z,2996
2018-02-04T07:56:31.932Z,3116
2018-02-04T07:57:46.080Z,3244
2018-02-04T07:58:47.942Z,3300
2018-02-04T07:59:49.816Z,3328
2018-02-04T08:00:51.676Z,3348
2018-02-04T08:01:53.489Z,3328
2018-02-04T08:02:55.298Z,3324
2018-02-04T08:03:57.159Z,3352
2018-02-04T08:04:59.015Z,3388
2018-02-04T08:06:00.894Z,3432
2018-02-04T08:07:15.037Z,3428
2018-02-04T08:08:16.902Z,3440
2018-02-04T08:09:18.769Z,3600
2018-02-04T08:10:20.659Z,3736
2018-02-04T08:11:22.493Z,3760
2018-02-04T08:12:24.297Z,3716
2018-02-04T08:13:26.173Z,3784
2018-02-04T08:14:28.051Z,3792
2018-02-04T08:15:29.930Z,3768
2018-02-04T08:16:44.077Z,4044
2018-02-04T08:17:45.976Z,4256
2018-02-04T08:18:47.852Z,4256
2018-02-04T08:19:49.747Z,4132
2018-02-04T08:20:51.542Z,4144
2018-02-04T08:21:53.334Z,4308
2018-02-04T08:22:55.217Z,4588
2018-02-04T08:23:57.091Z,4908
2018-02-04T08:24:58.971Z,4988
2018-02-04T08:26:13.116Z,4664
2018-02-04T08:27:14.997Z,4736
2018-02-04T08:28:16.877Z,4768
2018-02-04T08:29:18.751Z,4956
2018-02-04T08:30:20.550Z,5060
2018-02-04T08:31:22.357Z,5672
2018-02-04T08:32:24.215Z,5788
2018-02-04T08:33:26.096Z,5656
2018-02-04T08:34:27.971Z,5440
2018-02-04T08:35:42.114Z,5448
2018-02-04T08:36:44.026Z,5656
2018-02-04T08:37:45.910Z,5608
2018-02-04T08:38:47.775Z,5676
2018-02-04T08:39:49.586Z,5744
2018-02-04T08:40:51.377Z,5904
2018-02-04T08:41:53.296Z,6024
2018-02-04T08:42:55.114Z,6252
2018-02-04T08:43:56.976Z,6548
2018-02-04T08:45:11.167Z,6928
2018-02-04T08:46:13.052Z,7164
2018-02-04T08:47:15.031Z,7300
2018-02-04T08:48:16.864Z,7484
2018-02-04T08:49:18.655Z,7616
2018-02-04T08:50:20.463Z,7440
2018-02-04T08:51:22.323Z,7184
2018-02-04T08:52:24.179Z,7024
2018-02-04T08:53:26.043Z,6824
2018-02-04T08:54:40.235Z,6484
2018-02-04T08:55:42.118Z,6332
2018-02-04T08:56:43.972Z,6180
2018-02-04T08:57:45.831Z,6048
2018-02-04T08:58:47.630Z,6092
2018-02-04T08:59:49.446Z,6060
2018-02-04T09:00:51.325Z,6136
2018-02-04T09:01:53.203Z,6412
2018-02-04T09:02:55.084Z,6492
2018-02-04T09:04:09.202Z,6768
2018-02-04T09:05:11.067Z,6824
2018-02-04T09:06:12.946Z,6912
2018-02-04T09:07:14.824Z,7092
2018-02-04T09:08:16.638Z,7308
2018-02-04T09:09:18.454Z,7420
2018-02-04T09:10:20.308Z,7400
2018-02-04T09:11:22.164Z,7376
2018-02-04T09:12:24.023Z,7336
2018-02-04T09:13:38.193Z,7244
2018-02-04T09:14:40.076Z,7160
2018-02-04T09:15:41.955Z,7064
2018-02-04T09:16:43.829Z,6992
2018-02-04T09:17:45.625Z,6904
2018-02-04T09:18:47.416Z,6780
2018-02-04T09:19:49.295Z,6688
2018-02-04T09:20:51.147Z,6692
2018-02-04T09:21:53.011Z,6788
2018-02-04T09:23:07.135Z,6984
2018-02-04T09:24:09.016Z,7184
2018-02-04T09:25:10.875Z,7376
2018-02-04T09:26:12.754Z,7568
2018-02-04T09:27:14.570Z,7696
2018-02-04T09:28:16.360Z,7812
2018-02-04T09:29:18.218Z,7872
2018-02-04T09:30:20.092Z,7916
2018-02-04T09:31:21.949Z,7888
2018-02-04T09:32:36.076Z,7804
2018-02-04T09:33:37.936Z,7712
2018-02-04T09:34:39.795Z,7672
2018-02-04T09:35:41.675Z,7640
2018-02-04T09:36:43.476Z,7608
2018-02-04T09:37:45.342Z,7552
2018-02-04T09:38:47.224Z,7456
2018-02-04T09:39:49.079Z,7360
2018-02-04T09:40:50.937Z,7268
2018-02-04T09:42:05.065Z,7140
2018-02-04T09:43:06.940Z,7056
2018-02-04T09:44:08.798Z,7036
2018-02-04T09:45:10.655Z,7100
2018-02-04T09:46:12.455Z,7184
2018-02-04T09:47:14.256Z,7248
2018-02-04T09:48:16.135Z,7296
2018-02-04T09:49:18.010Z,7308
2018-02-04T09:50:19.872Z,7292
2018-02-04T09:51:34.001Z,7256
2018-02-04T09:52:35.877Z,7236
2018-02-04T09:53:37.759Z,7148
2018-02-04T09:54:39.638Z,7012
2018-02-04T09:55:41.458Z,6884
2018-02-04T09:56:43.270Z,6768
2018-02-04T09:57:45.130Z,6616
2018-02-04T09:58:47.037Z,6448
2018-02-04T09:59:48.851Z,6276
2018-02-04T10:01:02.991Z,6120
2018-02-04T10:02:04.851Z,6036
2018-02-04T10:03:06.714Z,6004
2018-02-04T10:04:08.590Z,6028
2018-02-04T10:05:10.388Z,6088
2018-02-04T10:06:12.179Z,6192
2018-02-04T10:07:14.042Z,6308
2018-02-04T10:08:15.921Z,6440
2018-02-04T10:09:17.800Z,6560
2018-02-04T10:10:31.928Z,6732
2018-02-04T10:11:33.785Z,6880
2018-02-04T10:12:35.644Z,7052
2018-02-04T10:13:37.508Z,7184
2018-02-04T10:14:39.316Z,7240
2018-02-04T10:15:41.113Z,7244
2018-02-04T10:16:42.986Z,7216
2018-02-04T10:17:44.853Z,7100
2018-02-04T10:18:46.725Z,6928
2018-02-04T10:20:00.854Z,6776
2018-02-04T10:21:02.719Z,6732
2018-02-04T10:22:04.593Z,6792
2018-02-04T10:23:06.452Z,6888
2018-02-04T10:24:08.248Z,7012
2018-02-04T10:25:10.043Z,7052
2018-02-04T10:26:11.898Z,7012
2018-02-04T10:27:13.762Z,6940
2018-02-04T10:28:15.622Z,6868
2018-02-04T10:29:29.750Z,6856
2018-02-04T10:30:31.608Z,6904
2018-02-04T10:31:33.472Z,6996
2018-02-04T10:32:35.350Z,7024
2018-02-04T10:33:37.124Z,6908
2018-02-04T10:34:38.921Z,6684
2018-02-04T10:35:40.799Z,6456
2018-02-04T10:36:42.662Z,6256
2018-02-04T10:37:44.553Z,6108
2018-02-04T10:38:58.694Z,5988
2018-02-04T10:40:00.556Z,5916
2018-02-04T10:41:02.428Z,5820
2018-02-04T10:42:04.289Z,5688
2018-02-04T10:43:06.109Z,5528
2018-02-04T10:44:07.920Z,5356
2018-02-04T10:45:09.804Z,5196
2018-02-04T10:46:11.673Z,5072
2018-02-04T10:47:13.537Z,5004
2018-02-04T10:48:27.655Z,4984
2018-02-04T10:49:29.522Z,4996
2018-02-04T10:50:31.374Z,5004
2018-02-04T10:51:33.237Z,5000
2018-02-04T10:52:35.026Z,4988
2018-02-04T10:53:36.826Z,4944
2018-02-04T10:54:38.703Z,4884
2018-02-04T10:55:40.637Z,4820
2018-02-04T10:56:42.455Z,4792
2018-02-04T10:57:56.597Z,4832
2018-02-04T10:58:58.464Z,4920
2018-02-04T11:00:00.340Z,5056
2018-02-04T11:01:02.200Z,5224
2018-02-04T11:02:04.025Z,5372
2018-02-04T11:03:05.810Z,5520
2018-02-04T11:04:07.668Z,5660
2018-02-04T11:05:09.546Z,5784
2018-02-04T11:06:11.456Z,5896
2018-02-04T11:07:25.555Z,6092
2018-02-04T11:08:27.430Z,6344
2018-02-04T11:09:29.315Z,6660
2018-02-04T11:10:31.187Z,6976
2018-02-04T11:11:33.018Z,7112
2018-02-04T11:12:34.772Z,7096
2018-02-04T11:13:36.657Z,6840
2018-02-04T11:14:38.531Z,6616
2018-02-04T11:15:40.413Z,6364
2018-02-04T11:16:54.559Z,6404
2018-02-04T11:17:56.421Z,6340
2018-02-04T11:18:58.279Z,5924
2018-02-04T11:20:00.137Z,5420
2018-02-04T11:21:01.933Z,4964
2018-02-04T11:22:03.742Z,4408
2018-02-04T11:23:06.142Z,4076
2018-02-04T11:24:08.951Z,3912
2018-02-04T11:24:53.674Z,3816
2018-02-04T11:25:38.388Z,3780
2018-02-04T11:26:23.110Z,3796
2018-02-04T11:27:07.819Z,3808
2018-02-04T11:27:52.519Z,3860
2018-02-04T11:28:37.229Z,3940
2018-02-04T11:29:21.984Z,4016
2018-02-04T11:30:06.691Z,4160
2018-02-04T11:30:51.384Z,4252
2018-02-04T11:31:36.105Z,4236
2018-02-04T11:32:20.808Z,4216
2018-02-04T11:33:05.511Z,4180
2018-02-04T11:33:50.216Z,4112
2018-02-04T11:34:34.926Z,4012
2018-02-04T11:35:19.655Z,3936
2018-02-04T11:36:04.358Z,3920
2018-02-04T11:36:49.067Z,3964
2018-02-04T11:37:33.785Z,4048
2018-02-04T11:38:18.490Z,4152
2018-02-04T11:39:03.193Z,4220
2018-02-04T11:39:47.905Z,4248
2018-02-04T11:40:32.674Z,4272
2018-02-04T11:41:17.385Z,4376
2018-02-04T11:42:02.160Z,4536
2018-02-04T11:42:46.890Z,4764
2018-02-04T11:43:31.614Z,5112
2018-02-04T11:44:16.317Z,5484
2018-02-04T11:45:01.025Z,5852
2018-02-04T11:45:45.736Z,6240
2018-02-04T11:46:30.442Z,6520
2018-02-04T11:47:15.145Z,6608
2018-02-04T11:47:59.852Z,6616
2018-02-04T11:48:44.577Z,6640
2018-02-04T11:49:29.284Z,6752
2018-02-04T11:50:13.989Z,6924
2018-02-04T11:50:58.770Z,7072
2018-02-04T11:51:43.467Z,7188
2018-02-04T11:52:28.175Z,7288
2018-02-04T11:53:12.891Z,7332
2018-02-04T11:53:57.615Z,7344
2018-02-04T11:54:42.322Z,7328
2018-02-04T11:55:27.026Z,7292
2018-02-04T11:56:11.734Z,7248
2018-02-04T11:56:56.461Z,7180
2018-02-04T11:57:41.162Z,7072
2018-02-04T11:58:25.870Z,6904
2018-02-04T11:59:10.596Z,6684
2018-02-04T11:59:55.367Z,6448
2018-02-04T12:00:40.005Z,6228
2018-02-04T12:01:24.725Z,6000
2018-02-04T12:02:09.445Z,5748
2018-02-04T12:02:54.150Z,5476
2018-02-04T12:03:38.852Z,5260
2018-02-04T12:04:23.596Z,5264
2018-02-04T12:05:08.298Z,5492
2018-02-04T12:05:53.002Z,5840
2018-02-04T12:06:37.732Z,6216
2018-02-04T12:07:22.435Z,6620
2018-02-04T12:08:07.141Z,6996
2018-02-04T12:08:51.923Z,7284
2018-02-04T12:09:36.649Z,7276
2018-02-04T12:10:21.353Z,6976
2018-02-04T12:11:06.062Z,6592
2018-02-04T12:11:50.791Z,6232
2018-02-04T12:12:35.496Z,5940
2018-02-04T12:13:20.228Z,5732
2018-02-04T12:14:04.928Z,5552
2018-02-04T12:14:49.639Z,5392
2018-02-04T12:15:34.419Z,5280
2018-02-04T12:16:19.118Z,5200
2018-02-04T12:17:03.826Z,5172
2018-02-04T12:17:48.532Z,5188
2018-02-04T12:18:33.305Z,5208
2018-02-04T12:19:18.033Z,5268
2018-02-04T12:20:02.762Z,5352
2018-02-04T12:20:47.489Z,5420
2018-02-04T12:21:32.193Z,5448
2018-02-04T12:22:16.900Z,5432
2018-02-04T12:23:01.628Z,5388
2018-02-04T12:23:46.336Z,5212
2018-02-04T12:24:31.040Z,4988
2018-02-04T12:25:15.746Z,4772
2018-02-04T12:26:00.453Z,4608
2018-02-04T12:26:45.178Z,4488
2018-02-04T12:27:29.886Z,4368
2018-02-04T12:28:14.591Z,4288
2018-02-04T12:28:59.323Z,4272
2018-02-04T12:29:44.105Z,4288
2018-02-04T12:30:28.820Z,4324
2018-02-04T12:31:13.530Z,4372
2018-02-04T12:31:58.283Z,4448
2018-02-04T12:32:42.984Z,4548
2018-02-04T12:33:27.694Z,4668
2018-02-04T12:34:12.405Z,4868
2018-02-04T12:34:57.129Z,5108
2018-02-04T12:35:41.832Z,5364
2018-02-04T12:36:26.550Z,5664
2018-02-04T12:37:11.244Z,6068
2018-02-04T12:37:55.955Z,6520
2018-02-04T12:38:40.680Z,7028
2018-02-04T12:39:25.412Z,7512
2018-02-04T12:40:10.117Z,7868
2018-02-04T12:40:54.840Z,8272
2018-02-04T12:41:39.561Z,8512
2018-02-04T12:42:24.310Z,8432
2018-02-04T12:43:09.040Z,7952
2018-02-04T12:43:53.741Z,7520
2018-02-04T12:44:38.456Z,7260
2018-02-04T12:45:23.249Z,7264
2018-02-04T12:46:07.957Z,7472
2018-02-04T12:46:52.659Z,7676
2018-02-04T12:47:37.467Z,7724
2018-02-04T12:48:22.160Z,7244
2018-02-04T12:49:06.888Z,6564
2018-02-04T12:49:51.613Z,5884
2018-02-04T12:50:36.388Z,5412
2018-02-04T12:51:21.093Z,5104
2018-02-04T12:52:05.798Z,4896
2018-02-04T12:52:50.528Z,4812
2018-02-04T12:53:35.255Z,4844
2018-02-04T12:54:19.981Z,4912
2018-02-04T12:55:04.682Z,4912
2018-02-04T12:55:49.390Z,4804
2018-02-04T12:56:34.145Z,4644
2018-02-04T12:57:18.899Z,4484
2018-02-04T12:58:03.624Z,4360
2018-02-04T12:58:48.333Z,4288
2018-02-04T12:59:33.041Z,4228
2018-02-04T13:00:17.767Z,4208
2018-02-04T13:01:02.474Z,4164
2018-02-04T13:01:47.247Z,4172
2018-02-04T13:02:32.001Z,4240
2018-02-04T13:03:16.654Z,4260
2018-02-04T13:04:01.410Z,4184
2018-02-04T13:04:46.114Z,4056
2018-02-04T13:05:30.815Z,3928
2018-02-04T13:06:15.524Z,3812
2018-02-04T13:07:00.260Z,3704
2018-02-04T13:07:44.960Z,3592
2018-02-04T13:08:29.665Z,3508
2018-02-04T13:09:14.392Z,3472
2018-02-04T13:09:59.098Z,3432
2018-02-04T13:10:43.854Z,3392
2018-02-04T13:11:28.581Z,3356
2018-02-04T13:12:13.334Z,3316
2018-02-04T13:12:58.048Z,3256
2018-02-04T13:13:42.766Z,3200
2018-02-04T13:14:27.478Z,3160
2018-02-04T13:15:12.205Z,3144
2018-02-04T13:15:56.911Z,3140
2018-02-04T13:16:41.640Z,3140
2018-02-04T13:17:26.351Z,3140
2018-02-04T13:18:11.076Z,3144
2018-02-04T13:18:55.807Z,3140
2018-02-04T13:19:40.532Z,3136
2018-02-04T13:20:25.235Z,3136
2018-02-04T13:21:09.947Z,3132
2018-02-04T13:21:54.672Z,3120
2018-02-04T13:22:39.430Z,3112
2018-02-04T13:23:24.199Z,3088
2018-02-04T13:24:08.908Z,3072
2018-02-04T13:24:53.639Z,3052
2018-02-04T13:25:38.342Z,3036
2018-02-04T13:26:23.095Z,3020
2018-02-04T13:27:07.829Z,3016
2018-02-04T13:27:52.549Z,3020
2018-02-04T13:28:37.307Z,3024
2018-02-04T13:29:22.030Z,3036
2018-02-04T13:30:06.744Z,3060
2018-02-04T13:30:51.461Z,3092
2018-02-04T13:31:36.215Z,3160
2018-02-04T13:32:20.924Z,3196
2018-02-04T13:33:05.650Z,3224
2018-02-04T13:33:50.354Z,3224
2018-02-04T13:34:35.066Z,3232
2018-02-04T13:35:19.794Z,3252
2018-02-04T13:36:04.501Z,3272
2018-02-04T13:36:49.252Z,3272
2018-02-04T13:37:33.960Z,3268
2018-02-04T13:38:18.682Z,3276
2018-02-04T13:39:03.442Z,3272
2018-02-04T13:39:48.141Z,3308
2018-02-04T13:40:32.895Z,3308
2018-02-04T13:41:17.600Z,3308
2018-02-04T13:42:02.313Z,3324
2018-02-04T13:42:47.037Z,3316
2018-02-04T13:43:31.757Z,3344